sensor_id;sensor_type;location;lat;lon;timestamp;temperature;humidity
23618;DHT22;18207;32.078;34.818;2023-10-13T00:02:17;32.00;39.80
23618;DHT22;18207;32.078;34.818;2023-10-13T00:04:49;31.90;39.70
23618;DHT22;18207;32.078;34.818;2023-10-13T00:07:19;31.90;39.70
23618;DHT22;18207;32.078;34.818;2023-10-13T00:09:53;31.90;39.70
23618;DHT22;18207;32.078;34.818;2023-10-13T00:12:24;31.90;39.70
23618;DHT22;18207;32.078;34.818;2023-10-13T00:14:53;31.90;39.70
23618;DHT22;18207;32.078;34.818;2023-10-13T00:17:23;31.90;39.80
23618;DHT22;18207;32.078;34.818;2023-10-13T00:19:53;31.80;39.70
23618;DHT22;18207;32.078;34.818;2023-10-13T00:22:23;31.80;39.80
23618;DHT22;18207;32.078;34.818;2023-10-13T00:24:56;31.80;39.80
23618;DHT22;18207;32.078;34.818;2023-10-13T00:27:31;31.80;39.80
23618;DHT22;18207;32.078;34.818;2023-10-13T00:30:05;31.80;39.80
23618;DHT22;18207;32.078;34.818;2023-10-13T00:32:58;31.80;39.80
23618;DHT22;18207;32.078;34.818;2023-10-13T00:35:29;31.80;39.80
23618;DHT22;18207;32.078;34.818;2023-10-13T00:38:04;31.80;39.80
23618;DHT22;18207;32.078;34.818;2023-10-13T00:40:44;31.80;39.80
23618;DHT22;18207;32.078;34.818;2023-10-13T00:43:22;31.80;39.80
23618;DHT22;18207;32.078;34.818;2023-10-13T00:46:02;31.80;39.80
23618;DHT22;18207;32.078;34.818;2023-10-13T00:48:37;31.70;39.70
23618;DHT22;18207;32.078;34.818;2023-10-13T00:51:20;31.80;39.80
23618;DHT22;18207;32.078;34.818;2023-10-13T00:54:04;31.80;39.80
23618;DHT22;18207;32.078;34.818;2023-10-13T00:56:41;31.70;39.70
23618;DHT22;18207;32.078;34.818;2023-10-13T00:59:18;31.70;39.70
23618;DHT22;18207;32.078;34.818;2023-10-13T01:01:51;31.60;39.70
23618;DHT22;18207;32.078;34.818;2023-10-13T01:04:23;31.60;39.70
23618;DHT22;18207;32.078;34.818;2023-10-13T01:06:55;31.60;39.80
23618;DHT22;18207;32.078;34.818;2023-10-13T01:09:26;31.60;39.80
23618;DHT22;18207;32.078;34.818;2023-10-13T01:11:57;31.60;39.90
23618;DHT22;18207;32.078;34.818;2023-10-13T01:14:28;31.60;39.90
23618;DHT22;18207;32.078;34.818;2023-10-13T01:16:58;31.50;39.80
23618;DHT22;18207;32.078;34.818;2023-10-13T01:19:29;31.50;39.80
23618;DHT22;18207;32.078;34.818;2023-10-13T01:21:59;31.40;39.80
23618;DHT22;18207;32.078;34.818;2023-10-13T01:24:32;31.40;39.80
23618;DHT22;18207;32.078;34.818;2023-10-13T01:27:03;31.40;39.90
23618;DHT22;18207;32.078;34.818;2023-10-13T01:29:46;31.40;39.90
23618;DHT22;18207;32.078;34.818;2023-10-13T01:32:19;31.40;39.90
23618;DHT22;18207;32.078;34.818;2023-10-13T01:34:50;31.30;40.00
23618;DHT22;18207;32.078;34.818;2023-10-13T01:37:23;31.30;40.00
23618;DHT22;18207;32.078;34.818;2023-10-13T01:39:53;31.30;40.00
23618;DHT22;18207;32.078;34.818;2023-10-13T01:42:23;31.30;40.10
23618;DHT22;18207;32.078;34.818;2023-10-13T01:44:52;31.20;40.00
23618;DHT22;18207;32.078;34.818;2023-10-13T01:47:33;31.20;40.10
23618;DHT22;18207;32.078;34.818;2023-10-13T01:50:01;31.20;40.10
23618;DHT22;18207;32.078;34.818;2023-10-13T01:52:41;31.20;40.10
23618;DHT22;18207;32.078;34.818;2023-10-13T01:55:11;31.20;40.10
23618;DHT22;18207;32.078;34.818;2023-10-13T01:57:48;31.20;40.20
23618;DHT22;18207;32.078;34.818;2023-10-13T02:00:17;31.20;40.20
23618;DHT22;18207;32.078;34.818;2023-10-13T02:02:47;31.10;40.20
23618;DHT22;18207;32.078;34.818;2023-10-13T02:05:17;31.10;40.30
23618;DHT22;18207;32.078;34.818;2023-10-13T02:07:47;31.10;40.30
23618;DHT22;18207;32.078;34.818;2023-10-13T02:10:18;31.10;40.40
23618;DHT22;18207;32.078;34.818;2023-10-13T02:12:54;31.10;40.40
23618;DHT22;18207;32.078;34.818;2023-10-13T02:15:23;31.10;40.40
23618;DHT22;18207;32.078;34.818;2023-10-13T02:17:54;31.20;40.50
23618;DHT22;18207;32.078;34.818;2023-10-13T02:20:23;31.20;40.50
23618;DHT22;18207;32.078;34.818;2023-10-13T02:22:59;31.20;40.50
23618;DHT22;18207;32.078;34.818;2023-10-13T02:25:29;31.20;40.50
23618;DHT22;18207;32.078;34.818;2023-10-13T02:28:10;31.20;40.50
23618;DHT22;18207;32.078;34.818;2023-10-13T02:30:43;31.20;40.50
23618;DHT22;18207;32.078;34.818;2023-10-13T02:33:13;31.20;40.50
23618;DHT22;18207;32.078;34.818;2023-10-13T02:35:49;31.20;40.60
23618;DHT22;18207;32.078;34.818;2023-10-13T02:38:21;31.20;40.60
23618;DHT22;18207;32.078;34.818;2023-10-13T02:40:57;31.20;40.60
23618;DHT22;18207;32.078;34.818;2023-10-13T02:43:34;31.20;40.60
23618;DHT22;18207;32.078;34.818;2023-10-13T02:46:04;31.20;40.60
23618;DHT22;18207;32.078;34.818;2023-10-13T02:48:34;31.20;40.60
23618;DHT22;18207;32.078;34.818;2023-10-13T02:51:09;31.20;40.60
23618;DHT22;18207;32.078;34.818;2023-10-13T02:53:44;31.20;40.60
23618;DHT22;18207;32.078;34.818;2023-10-13T02:56:19;31.20;40.60
23618;DHT22;18207;32.078;34.818;2023-10-13T02:58:49;31.20;40.70
23618;DHT22;18207;32.078;34.818;2023-10-13T03:01:24;31.20;40.70
23618;DHT22;18207;32.078;34.818;2023-10-13T03:03:56;31.20;40.80
23618;DHT22;18207;32.078;34.818;2023-10-13T03:06:27;31.20;40.80
23618;DHT22;18207;32.078;34.818;2023-10-13T03:09:01;31.20;40.80
23618;DHT22;18207;32.078;34.818;2023-10-13T03:11:44;31.20;40.80
23618;DHT22;18207;32.078;34.818;2023-10-13T03:14:16;31.10;40.70
23618;DHT22;18207;32.078;34.818;2023-10-13T03:16:56;31.10;40.80
23618;DHT22;18207;32.078;34.818;2023-10-13T03:19:30;31.10;41.40
23618;DHT22;18207;32.078;34.818;2023-10-13T03:22:02;31.10;40.90
23618;DHT22;18207;32.078;34.818;2023-10-13T03:24:38;31.10;40.90
23618;DHT22;18207;32.078;34.818;2023-10-13T03:27:15;31.10;40.90
23618;DHT22;18207;32.078;34.818;2023-10-13T03:29:51;31.10;40.90
23618;DHT22;18207;32.078;34.818;2023-10-13T03:32:23;31.10;40.90
23618;DHT22;18207;32.078;34.818;2023-10-13T03:34:54;31.10;40.90
23618;DHT22;18207;32.078;34.818;2023-10-13T03:37:39;31.10;40.90
23618;DHT22;18207;32.078;34.818;2023-10-13T03:40:10;31.10;40.90
23618;DHT22;18207;32.078;34.818;2023-10-13T03:43:03;31.10;40.90
23618;DHT22;18207;32.078;34.818;2023-10-13T03:45:35;31.10;40.90
23618;DHT22;18207;32.078;34.818;2023-10-13T03:48:08;31.10;40.90
23618;DHT22;18207;32.078;34.818;2023-10-13T03:50:40;31.10;40.90
23618;DHT22;18207;32.078;34.818;2023-10-13T03:53:15;31.00;40.90
23618;DHT22;18207;32.078;34.818;2023-10-13T03:55:47;31.00;40.90
23618;DHT22;18207;32.078;34.818;2023-10-13T03:58:21;31.00;41.00
23618;DHT22;18207;32.078;34.818;2023-10-13T04:00:54;31.00;41.10
23618;DHT22;18207;32.078;34.818;2023-10-13T04:03:24;31.00;41.10
23618;DHT22;18207;32.078;34.818;2023-10-13T04:06:00;31.00;41.20
23618;DHT22;18207;32.078;34.818;2023-10-13T04:08:34;30.90;41.10
23618;DHT22;18207;32.078;34.818;2023-10-13T04:11:43;30.90;41.10
23618;DHT22;18207;32.078;34.818;2023-10-13T04:14:50;30.90;41.10
23618;DHT22;18207;32.078;34.818;2023-10-13T04:17:39;31.00;41.20
23618;DHT22;18207;32.078;34.818;2023-10-13T04:20:12;31.00;41.10
23618;DHT22;18207;32.078;34.818;2023-10-13T04:22:57;31.00;41.20
23618;DHT22;18207;32.078;34.818;2023-10-13T04:25:46;30.90;41.20
23618;DHT22;18207;32.078;34.818;2023-10-13T04:28:48;30.90;41.20
23618;DHT22;18207;32.078;34.818;2023-10-13T04:31:22;31.00;41.20
23618;DHT22;18207;32.078;34.818;2023-10-13T04:34:08;30.90;41.30
23618;DHT22;18207;32.078;34.818;2023-10-13T04:36:47;31.00;41.30
23618;DHT22;18207;32.078;34.818;2023-10-13T04:39:23;30.90;41.30
23618;DHT22;18207;32.078;34.818;2023-10-13T04:42:03;30.90;41.40
23618;DHT22;18207;32.078;34.818;2023-10-13T04:44:41;30.90;41.30
23618;DHT22;18207;32.078;34.818;2023-10-13T04:47:27;30.90;41.40
23618;DHT22;18207;32.078;34.818;2023-10-13T04:49:58;30.90;41.40
23618;DHT22;18207;32.078;34.818;2023-10-13T04:52:29;30.90;41.40
23618;DHT22;18207;32.078;34.818;2023-10-13T04:55:28;30.90;41.60
23618;DHT22;18207;32.078;34.818;2023-10-13T04:58:15;30.90;41.60
23618;DHT22;18207;32.078;34.818;2023-10-13T05:01:10;30.90;41.70
23618;DHT22;18207;32.078;34.818;2023-10-13T05:04:13;30.90;41.70
23618;DHT22;18207;32.078;34.818;2023-10-13T05:07:06;31.00;41.80
23618;DHT22;18207;32.078;34.818;2023-10-13T05:09:52;31.00;42.30
23618;DHT22;18207;32.078;34.818;2023-10-13T05:12:43;31.00;41.80
23618;DHT22;18207;32.078;34.818;2023-10-13T05:15:46;31.10;41.80
23618;DHT22;18207;32.078;34.818;2023-10-13T05:18:36;31.10;41.80
23618;DHT22;18207;32.078;34.818;2023-10-13T05:21:28;31.10;41.90
23618;DHT22;18207;32.078;34.818;2023-10-13T05:24:16;31.10;41.90
23618;DHT22;18207;32.078;34.818;2023-10-13T05:27:04;31.20;42.00
23618;DHT22;18207;32.078;34.818;2023-10-13T05:29:51;31.20;42.00
23618;DHT22;18207;32.078;34.818;2023-10-13T05:32:39;31.20;42.10
23618;DHT22;18207;32.078;34.818;2023-10-13T05:35:31;31.30;42.10
23618;DHT22;18207;32.078;34.818;2023-10-13T05:38:19;31.40;42.20
23618;DHT22;18207;32.078;34.818;2023-10-13T05:41:09;31.40;42.20
23618;DHT22;18207;32.078;34.818;2023-10-13T05:43:56;31.40;42.20
23618;DHT22;18207;32.078;34.818;2023-10-13T05:46:43;31.50;42.30
23618;DHT22;18207;32.078;34.818;2023-10-13T05:49:29;31.50;42.30
23618;DHT22;18207;32.078;34.818;2023-10-13T05:52:18;31.60;42.30
23618;DHT22;18207;32.078;34.818;2023-10-13T05:55:11;31.70;42.40
23618;DHT22;18207;32.078;34.818;2023-10-13T05:58:09;31.80;42.50
23618;DHT22;18207;32.078;34.818;2023-10-13T06:00:58;31.90;42.40
23618;DHT22;18207;32.078;34.818;2023-10-13T06:03:45;31.90;42.30
23618;DHT22;18207;32.078;34.818;2023-10-13T06:06:34;32.00;42.40
23618;DHT22;18207;32.078;34.818;2023-10-13T06:09:23;32.10;42.50
23618;DHT22;18207;32.078;34.818;2023-10-13T06:12:12;32.10;42.40
23618;DHT22;18207;32.078;34.818;2023-10-13T06:14:59;32.20;42.50
23618;DHT22;18207;32.078;34.818;2023-10-13T06:17:46;32.30;42.50
23618;DHT22;18207;32.078;34.818;2023-10-13T06:20:38;32.30;42.40
23618;DHT22;18207;32.078;34.818;2023-10-13T06:23:26;32.40;42.40
23618;DHT22;18207;32.078;34.818;2023-10-13T06:26:13;32.50;42.40
23618;DHT22;18207;32.078;34.818;2023-10-13T06:29:02;32.50;42.30
23618;DHT22;18207;32.078;34.818;2023-10-13T06:31:35;32.60;42.20
23618;DHT22;18207;32.078;34.818;2023-10-13T06:34:11;32.60;42.20
23618;DHT22;18207;32.078;34.818;2023-10-13T06:36:43;32.60;42.10
23618;DHT22;18207;32.078;34.818;2023-10-13T06:39:16;32.70;42.20
23618;DHT22;18207;32.078;34.818;2023-10-13T06:42:03;32.80;42.20
23618;DHT22;18207;32.078;34.818;2023-10-13T06:44:35;32.90;42.20
23618;DHT22;18207;32.078;34.818;2023-10-13T06:47:07;32.90;42.10
23618;DHT22;18207;32.078;34.818;2023-10-13T06:49:38;32.90;42.10
23618;DHT22;18207;32.078;34.818;2023-10-13T06:52:11;33.00;42.00
23618;DHT22;18207;32.078;34.818;2023-10-13T06:54:41;33.10;42.00
23618;DHT22;18207;32.078;34.818;2023-10-13T06:57:11;33.10;41.90
23618;DHT22;18207;32.078;34.818;2023-10-13T06:59:49;33.20;41.90
23618;DHT22;18207;32.078;34.818;2023-10-13T07:02:21;33.30;41.90
23618;DHT22;18207;32.078;34.818;2023-10-13T07:04:55;33.30;41.90
23618;DHT22;18207;32.078;34.818;2023-10-13T07:07:36;33.40;41.80
23618;DHT22;18207;32.078;34.818;2023-10-13T07:10:08;33.40;41.80
23618;DHT22;18207;32.078;34.818;2023-10-13T07:12:40;33.40;41.60
23618;DHT22;18207;32.078;34.818;2023-10-13T07:15:13;33.40;41.60
23618;DHT22;18207;32.078;34.818;2023-10-13T07:17:48;33.50;41.50
23618;DHT22;18207;32.078;34.818;2023-10-13T07:20:27;33.50;41.40
23618;DHT22;18207;32.078;34.818;2023-10-13T07:23:02;33.60;41.40
23618;DHT22;18207;32.078;34.818;2023-10-13T07:25:34;33.70;41.30
23618;DHT22;18207;32.078;34.818;2023-10-13T07:28:05;33.70;41.30
23618;DHT22;18207;32.078;34.818;2023-10-13T07:30:39;33.70;41.10
23618;DHT22;18207;32.078;34.818;2023-10-13T07:33:10;33.70;41.10
23618;DHT22;18207;32.078;34.818;2023-10-13T07:35:41;33.80;41.10
23618;DHT22;18207;32.078;34.818;2023-10-13T07:38:12;33.80;41.00
23618;DHT22;18207;32.078;34.818;2023-10-13T07:40:44;33.90;40.90
23618;DHT22;18207;32.078;34.818;2023-10-13T07:43:18;33.90;40.90
23618;DHT22;18207;32.078;34.818;2023-10-13T07:45:51;33.90;40.80
23618;DHT22;18207;32.078;34.818;2023-10-13T07:48:26;34.00;40.80
23618;DHT22;18207;32.078;34.818;2023-10-13T07:50:59;34.00;40.70
23618;DHT22;18207;32.078;34.818;2023-10-13T07:53:32;34.00;40.60
23618;DHT22;18207;32.078;34.818;2023-10-13T07:56:07;34.00;40.60
23618;DHT22;18207;32.078;34.818;2023-10-13T07:58:39;34.00;40.60
23618;DHT22;18207;32.078;34.818;2023-10-13T08:01:25;34.10;40.60
23618;DHT22;18207;32.078;34.818;2023-10-13T08:03:55;34.10;40.60
23618;DHT22;18207;32.078;34.818;2023-10-13T08:06:41;34.10;40.60
23618;DHT22;18207;32.078;34.818;2023-10-13T08:09:13;34.10;40.50
23618;DHT22;18207;32.078;34.818;2023-10-13T08:12:14;34.10;40.30
23618;DHT22;18207;32.078;34.818;2023-10-13T08:14:49;34.20;40.30
23618;DHT22;18207;32.078;34.818;2023-10-13T08:17:37;34.20;40.20
23618;DHT22;18207;32.078;34.818;2023-10-13T08:20:11;34.20;40.20
23618;DHT22;18207;32.078;34.818;2023-10-13T08:22:44;34.30;40.20
23618;DHT22;18207;32.078;34.818;2023-10-13T08:25:15;34.30;40.20
23618;DHT22;18207;32.078;34.818;2023-10-13T08:28:02;34.30;40.20
23618;DHT22;18207;32.078;34.818;2023-10-13T08:30:49;34.30;40.10
23618;DHT22;18207;32.078;34.818;2023-10-13T08:33:24;34.40;40.10
23618;DHT22;18207;32.078;34.818;2023-10-13T08:35:55;34.40;40.00
23618;DHT22;18207;32.078;34.818;2023-10-13T08:38:55;34.40;40.00
23618;DHT22;18207;32.078;34.818;2023-10-13T08:41:25;34.40;39.90
23618;DHT22;18207;32.078;34.818;2023-10-13T08:44:08;34.50;39.90
23618;DHT22;18207;32.078;34.818;2023-10-13T08:47:12;34.50;39.80
23618;DHT22;18207;32.078;34.818;2023-10-13T08:49:47;34.50;39.70
23618;DHT22;18207;32.078;34.818;2023-10-13T08:52:34;34.50;39.70
23618;DHT22;18207;32.078;34.818;2023-10-13T08:55:17;34.60;39.70
23618;DHT22;18207;32.078;34.818;2023-10-13T08:58:16;34.50;39.60
23618;DHT22;18207;32.078;34.818;2023-10-13T09:00:54;34.60;39.70
23618;DHT22;18207;32.078;34.818;2023-10-13T09:03:40;34.60;39.70
23618;DHT22;18207;32.078;34.818;2023-10-13T09:06:13;34.60;39.70
23618;DHT22;18207;32.078;34.818;2023-10-13T09:08:50;34.60;39.70
23618;DHT22;18207;32.078;34.818;2023-10-13T09:11:35;34.60;39.70
23618;DHT22;18207;32.078;34.818;2023-10-13T09:14:17;34.60;39.60
23618;DHT22;18207;32.078;34.818;2023-10-13T09:17:04;34.60;39.60
23618;DHT22;18207;32.078;34.818;2023-10-13T09:19:47;34.60;39.50
23618;DHT22;18207;32.078;34.818;2023-10-13T09:22:23;34.60;39.40
23618;DHT22;18207;32.078;34.818;2023-10-13T09:24:56;34.60;39.60
23618;DHT22;18207;32.078;34.818;2023-10-13T09:27:29;34.60;39.40
23618;DHT22;18207;32.078;34.818;2023-10-13T09:30:02;34.60;39.40
23618;DHT22;18207;32.078;34.818;2023-10-13T09:32:39;34.60;39.50
23618;DHT22;18207;32.078;34.818;2023-10-13T09:35:23;34.60;39.50
23618;DHT22;18207;32.078;34.818;2023-10-13T09:37:55;34.60;39.50
23618;DHT22;18207;32.078;34.818;2023-10-13T09:40:30;34.60;39.50
23618;DHT22;18207;32.078;34.818;2023-10-13T09:43:02;34.60;39.60
23618;DHT22;18207;32.078;34.818;2023-10-13T09:45:36;34.60;39.50
23618;DHT22;18207;32.078;34.818;2023-10-13T09:48:10;34.60;39.60
23618;DHT22;18207;32.078;34.818;2023-10-13T09:50:49;34.60;39.50
23618;DHT22;18207;32.078;34.818;2023-10-13T09:53:18;34.60;39.50
23618;DHT22;18207;32.078;34.818;2023-10-13T09:56:00;34.60;39.40
23618;DHT22;18207;32.078;34.818;2023-10-13T09:58:48;34.60;39.40
23618;DHT22;18207;32.078;34.818;2023-10-13T10:01:33;34.60;39.40
23618;DHT22;18207;32.078;34.818;2023-10-13T10:04:26;34.60;39.40
23618;DHT22;18207;32.078;34.818;2023-10-13T10:07:24;34.60;39.40
23618;DHT22;18207;32.078;34.818;2023-10-13T10:09:57;34.60;39.40
23618;DHT22;18207;32.078;34.818;2023-10-13T10:12:36;34.60;39.40
23618;DHT22;18207;32.078;34.818;2023-10-13T10:15:23;34.60;39.40
23618;DHT22;18207;32.078;34.818;2023-10-13T10:18:02;34.60;39.40
23618;DHT22;18207;32.078;34.818;2023-10-13T10:20:36;34.60;39.40
23618;DHT22;18207;32.078;34.818;2023-10-13T10:23:24;34.60;39.30
23618;DHT22;18207;32.078;34.818;2023-10-13T10:25:56;34.50;39.10
23618;DHT22;18207;32.078;34.818;2023-10-13T10:28:36;34.50;39.10
23618;DHT22;18207;32.078;34.818;2023-10-13T10:31:07;34.50;39.20
23618;DHT22;18207;32.078;34.818;2023-10-13T10:33:43;34.50;39.30
23618;DHT22;18207;32.078;34.818;2023-10-13T10:36:28;34.50;39.30
23618;DHT22;18207;32.078;34.818;2023-10-13T10:39:00;34.50;39.30
23618;DHT22;18207;32.078;34.818;2023-10-13T10:41:32;34.50;39.30
23618;DHT22;18207;32.078;34.818;2023-10-13T10:44:12;34.50;39.20
23618;DHT22;18207;32.078;34.818;2023-10-13T10:46:51;34.50;39.10
23618;DHT22;18207;32.078;34.818;2023-10-13T10:49:26;34.50;39.10
23618;DHT22;18207;32.078;34.818;2023-10-13T10:52:01;34.40;39.00
23618;DHT22;18207;32.078;34.818;2023-10-13T10:54:32;34.50;39.10
23618;DHT22;18207;32.078;34.818;2023-10-13T10:57:02;34.40;39.00
23618;DHT22;18207;32.078;34.818;2023-10-13T10:59:40;34.40;39.00
23618;DHT22;18207;32.078;34.818;2023-10-13T11:02:10;34.40;38.90
23618;DHT22;18207;32.078;34.818;2023-10-13T11:04:43;34.40;38.90
23618;DHT22;18207;32.078;34.818;2023-10-13T11:07:25;34.30;38.80
23618;DHT22;18207;32.078;34.818;2023-10-13T11:10:07;34.30;38.80
23618;DHT22;18207;32.078;34.818;2023-10-13T11:12:54;34.30;38.80
23618;DHT22;18207;32.078;34.818;2023-10-13T11:15:42;34.30;38.90
23618;DHT22;18207;32.078;34.818;2023-10-13T11:18:14;34.30;39.00
23618;DHT22;18207;32.078;34.818;2023-10-13T11:20:50;34.30;39.00
23618;DHT22;18207;32.078;34.818;2023-10-13T11:23:26;34.30;39.10
23618;DHT22;18207;32.078;34.818;2023-10-13T11:25:59;34.20;39.00
23618;DHT22;18207;32.078;34.818;2023-10-13T11:28:39;34.20;39.10
23618;DHT22;18207;32.078;34.818;2023-10-13T11:31:23;34.20;39.10
23618;DHT22;18207;32.078;34.818;2023-10-13T11:33:59;34.20;39.20
23618;DHT22;18207;32.078;34.818;2023-10-13T11:36:34;34.20;39.20
23618;DHT22;18207;32.078;34.818;2023-10-13T11:39:07;34.10;39.10
23618;DHT22;18207;32.078;34.818;2023-10-13T11:41:40;34.10;39.00
23618;DHT22;18207;32.078;34.818;2023-10-13T11:44:18;34.10;39.00
23618;DHT22;18207;32.078;34.818;2023-10-13T11:46:58;34.10;38.90
23618;DHT22;18207;32.078;34.818;2023-10-13T11:50:01;34.10;38.80
23618;DHT22;18207;32.078;34.818;2023-10-13T11:52:33;34.10;38.90
23618;DHT22;18207;32.078;34.818;2023-10-13T11:55:05;34.10;38.90
23618;DHT22;18207;32.078;34.818;2023-10-13T11:57:35;34.10;38.90
23618;DHT22;18207;32.078;34.818;2023-10-13T12:00:15;34.00;38.80
23618;DHT22;18207;32.078;34.818;2023-10-13T12:03:13;34.00;38.70
23618;DHT22;18207;32.078;34.818;2023-10-13T12:06:34;34.00;38.70
23618;DHT22;18207;32.078;34.818;2023-10-13T12:09:14;34.00;38.70
23618;DHT22;18207;32.078;34.818;2023-10-13T12:12:09;34.00;38.70
23618;DHT22;18207;32.078;34.818;2023-10-13T12:14:39;34.00;38.70
23618;DHT22;18207;32.078;34.818;2023-10-13T12:17:24;34.00;38.70
23618;DHT22;18207;32.078;34.818;2023-10-13T12:20:03;34.00;38.70
23618;DHT22;18207;32.078;34.818;2023-10-13T12:22:37;33.90;38.60
23618;DHT22;18207;32.078;34.818;2023-10-13T12:25:10;34.00;38.70
23618;DHT22;18207;32.078;34.818;2023-10-13T12:27:55;33.90;38.70
23618;DHT22;18207;32.078;34.818;2023-10-13T12:30:33;33.90;38.60
23618;DHT22;18207;32.078;34.818;2023-10-13T12:33:29;33.90;38.60
23618;DHT22;18207;32.078;34.818;2023-10-13T12:36:14;33.90;38.60
23618;DHT22;18207;32.078;34.818;2023-10-13T12:39:00;33.90;38.60
23618;DHT22;18207;32.078;34.818;2023-10-13T12:41:49;33.80;38.60
23618;DHT22;18207;32.078;34.818;2023-10-13T12:45:03;33.80;38.70
23618;DHT22;18207;32.078;34.818;2023-10-13T12:48:05;33.90;38.80
23618;DHT22;18207;32.078;34.818;2023-10-13T12:51:00;33.90;38.90
23618;DHT22;18207;32.078;34.818;2023-10-13T12:53:50;33.80;38.80
23618;DHT22;18207;32.078;34.818;2023-10-13T12:56:27;33.80;38.90
23618;DHT22;18207;32.078;34.818;2023-10-13T12:58:59;33.80;38.90
23618;DHT22;18207;32.078;34.818;2023-10-13T13:01:40;33.80;38.90
23618;DHT22;18207;32.078;34.818;2023-10-13T13:04:13;33.80;39.00
23618;DHT22;18207;32.078;34.818;2023-10-13T13:06:51;33.80;39.10
23618;DHT22;18207;32.078;34.818;2023-10-13T13:09:22;33.80;39.20
23618;DHT22;18207;32.078;34.818;2023-10-13T13:11:56;33.80;39.30
23618;DHT22;18207;32.078;34.818;2023-10-13T13:14:28;33.80;39.30
23618;DHT22;18207;32.078;34.818;2023-10-13T13:17:01;33.80;39.40
23618;DHT22;18207;32.078;34.818;2023-10-13T13:19:37;33.80;39.50
23618;DHT22;18207;32.078;34.818;2023-10-13T13:22:13;33.80;39.50
23618;DHT22;18207;32.078;34.818;2023-10-13T13:24:46;33.80;39.60
23618;DHT22;18207;32.078;34.818;2023-10-13T13:27:16;33.80;39.60
23618;DHT22;18207;32.078;34.818;2023-10-13T13:29:47;33.80;39.60
23618;DHT22;18207;32.078;34.818;2023-10-13T13:32:22;33.80;39.60
23618;DHT22;18207;32.078;34.818;2023-10-13T13:34:58;33.70;39.60
23618;DHT22;18207;32.078;34.818;2023-10-13T13:37:32;33.80;39.70
23618;DHT22;18207;32.078;34.818;2023-10-13T13:40:07;33.70;39.70
23618;DHT22;18207;32.078;34.818;2023-10-13T13:42:45;33.70;39.80
23618;DHT22;18207;32.078;34.818;2023-10-13T13:45:19;33.70;39.80
23618;DHT22;18207;32.078;34.818;2023-10-13T13:48:03;33.70;39.80
23618;DHT22;18207;32.078;34.818;2023-10-13T13:50:49;33.70;39.80
23618;DHT22;18207;32.078;34.818;2023-10-13T13:53:32;33.70;39.80
23618;DHT22;18207;32.078;34.818;2023-10-13T13:56:12;33.70;39.80
23618;DHT22;18207;32.078;34.818;2023-10-13T13:58:47;33.70;39.80
23618;DHT22;18207;32.078;34.818;2023-10-13T14:01:24;33.70;39.80
23618;DHT22;18207;32.078;34.818;2023-10-13T14:03:59;33.70;39.80
23618;DHT22;18207;32.078;34.818;2023-10-13T14:06:36;33.60;40.00
23618;DHT22;18207;32.078;34.818;2023-10-13T14:09:10;33.60;39.90
23618;DHT22;18207;32.078;34.818;2023-10-13T14:11:55;33.60;39.90
23618;DHT22;18207;32.078;34.818;2023-10-13T14:15:00;33.60;39.80
23618;DHT22;18207;32.078;34.818;2023-10-13T14:17:48;33.70;39.80
23618;DHT22;18207;32.078;34.818;2023-10-13T14:20:22;33.70;39.80
23618;DHT22;18207;32.078;34.818;2023-10-13T14:22:58;33.70;39.80
23618;DHT22;18207;32.078;34.818;2023-10-13T14:25:37;33.70;39.80
23618;DHT22;18207;32.078;34.818;2023-10-13T14:28:14;33.60;39.80
23618;DHT22;18207;32.078;34.818;2023-10-13T14:30:50;33.60;39.80
23618;DHT22;18207;32.078;34.818;2023-10-13T14:33:20;33.60;39.90
23618;DHT22;18207;32.078;34.818;2023-10-13T14:35:57;33.60;39.90
23618;DHT22;18207;32.078;34.818;2023-10-13T14:38:34;33.60;39.90
23618;DHT22;18207;32.078;34.818;2023-10-13T14:41:09;33.60;39.90
23618;DHT22;18207;32.078;34.818;2023-10-13T14:43:48;33.60;39.90
23618;DHT22;18207;32.078;34.818;2023-10-13T14:46:27;33.60;39.90
23618;DHT22;18207;32.078;34.818;2023-10-13T14:49:01;33.60;39.90
23618;DHT22;18207;32.078;34.818;2023-10-13T14:51:37;33.50;39.90
23618;DHT22;18207;32.078;34.818;2023-10-13T14:54:08;33.60;40.00
23618;DHT22;18207;32.078;34.818;2023-10-13T14:56:38;33.50;40.00
23618;DHT22;18207;32.078;34.818;2023-10-13T14:59:09;33.50;40.00
23618;DHT22;18207;32.078;34.818;2023-10-13T15:01:45;33.50;40.00
23618;DHT22;18207;32.078;34.818;2023-10-13T15:04:17;33.50;40.10
23618;DHT22;18207;32.078;34.818;2023-10-13T15:06:54;33.50;40.10
23618;DHT22;18207;32.078;34.818;2023-10-13T15:09:27;33.40;39.90
23618;DHT22;18207;32.078;34.818;2023-10-13T15:11:57;33.50;40.00
23618;DHT22;18207;32.078;34.818;2023-10-13T15:14:33;33.50;40.60
23618;DHT22;18207;32.078;34.818;2023-10-13T15:17:04;33.50;40.00
23618;DHT22;18207;32.078;34.818;2023-10-13T15:19:35;33.50;40.00
23618;DHT22;18207;32.078;34.818;2023-10-13T15:22:08;33.40;40.00
23618;DHT22;18207;32.078;34.818;2023-10-13T15:24:46;33.40;40.00
23618;DHT22;18207;32.078;34.818;2023-10-13T15:27:28;33.40;40.00
23618;DHT22;18207;32.078;34.818;2023-10-13T15:30:00;33.40;40.00
23618;DHT22;18207;32.078;34.818;2023-10-13T15:32:33;33.40;40.00
23618;DHT22;18207;32.078;34.818;2023-10-13T15:35:13;33.40;40.00
23618;DHT22;18207;32.078;34.818;2023-10-13T15:37:45;33.40;40.00
23618;DHT22;18207;32.078;34.818;2023-10-13T15:40:16;33.40;40.00
23618;DHT22;18207;32.078;34.818;2023-10-13T15:42:46;33.40;40.00
23618;DHT22;18207;32.078;34.818;2023-10-13T15:45:24;33.40;40.10
23618;DHT22;18207;32.078;34.818;2023-10-13T15:48:11;33.40;40.10
23618;DHT22;18207;32.078;34.818;2023-10-13T15:50:50;33.40;40.10
23618;DHT22;18207;32.078;34.818;2023-10-13T15:53:27;33.40;40.10
23618;DHT22;18207;32.078;34.818;2023-10-13T15:56:03;33.40;40.10
23618;DHT22;18207;32.078;34.818;2023-10-13T15:58:43;33.30;40.10
23618;DHT22;18207;32.078;34.818;2023-10-13T16:01:13;33.30;40.10
23618;DHT22;18207;32.078;34.818;2023-10-13T16:03:45;33.30;40.10
23618;DHT22;18207;32.078;34.818;2023-10-13T16:06:21;33.30;40.10
23618;DHT22;18207;32.078;34.818;2023-10-13T16:08:58;33.30;40.10
23618;DHT22;18207;32.078;34.818;2023-10-13T16:11:29;33.30;40.10
23618;DHT22;18207;32.078;34.818;2023-10-13T16:13:59;33.30;40.10
23618;DHT22;18207;32.078;34.818;2023-10-13T16:16:33;33.30;40.10
23618;DHT22;18207;32.078;34.818;2023-10-13T16:19:03;33.30;40.10
23618;DHT22;18207;32.078;34.818;2023-10-13T16:21:35;33.20;40.00
23618;DHT22;18207;32.078;34.818;2023-10-13T16:24:11;33.30;40.10